Briefing drone pour Vic-sur-cere

Rechercher une autre localisation

Conditions de vol :


Nous sommes le : Dimanche 04 décembre 2022
Il est 18:46 UTC (19:46 LT)

Lever de soleil : 06:44 UTC (07:44 LT)
Coucher de soleil : 16:34 UTC (17:34 LT)

Météo

L'essentiel des conditions de vol

VIGILANCE MÉTÉO FRANCE - Cantal (15)
Vigilance Jaune : Neige-verglas
METAR de LFLW
LFLW 041830Z AUTO 12004KT 9999 FEW027 OVC033 01/01 Q1012

Date d'émission: 04/12/2022
Heure d'émission: 18:30 UTC
Vent: 120° pour 4 KT (7 km/h)
Visibilité horizontale: > 10 km
Plafond :
- Peu de nuages à 2700ft (823m)
- Couvert à 3300ft (1006m)
Température: 1 °C
Point de rosée: 1 °C
Humidité: 100%
Pression (QNH): 1012 hPa
Prévision 24h pour Aurillac (9 km)
Vent : 79° pour 1 KT (4 km/h)
Temperature Maxi: 5 °C
Temperature Min: 5 °C
Humidité : 83%
Condition : Ciel dégagé



Warning: count(): Parameter must be an array or an object that implements Countable in /homepages/6/d509196549/htdocs/droneoxygene/briefing.php on line 743
WEBCAM POUR VIC-SUR-CERE

Réglementation

Voler en sécurité

CARTES AERONAUTIQUE 1/500.000
CARTE AZBA (Reseau basse altitude)
CARTES VAC (LFLW)
SUP AIP




Chargement des AIP...
NOTAM (VIC-SUR-CERE + Terrain à proximité / FIR )




Chargement des NOTAMS...
CONTACT PREFECTURE 15


Avertissement : Les données mises à disposition sont indicatives. Oxygène Drone ne pourra être tenu responsable de dégâts causés aux biens et aux personnes.